Kahuta Weather



Kahuta's Current Weather

Temprature 33.33o broken clouds

broken clouds

Rain: 0 %

Min Temprature33.33o
Max Temprature33.33o
Humidity33
Wind Speed1.34 m/h
Sun Rise05:11:33
Sun Set18:54:21
Current Time: 08-May-2021 15:33:15
Lat/Lon: 33.5913, 73.3868




Kahuta's Geo Location



Kahuta's Weather Forecast

Time Overall Temp Min Temp Max Temp Humidity Wind Speed Rain
08-May-2021 (Sat)
17:00:00 broken clouds 33.330 32.070 33.330 33 2.23 m/h 0 %
20:00:00 scattered clouds 30.780 25.670 30.780 36 3.29 m/h 0 %
23:00:00 scattered clouds 26.980 23.810 26.980 41 3.53 m/h 0 %
09-May-2021 (Sun)
02:00:00 light rain 22.130 22.130 22.130 50 3.26 m/h 26 %
05:00:00 light rain 21.880 21.880 21.880 47 3.23 m/h 17 %
08:00:00 broken clouds 28.680 28.680 28.680 31 2.23 m/h 0 %
11:00:00 broken clouds 33.580 33.580 33.580 22 1.58 m/h 0 %
14:00:00 scattered clouds 35.090 35.090 35.090 20 4.14 m/h 0 %
17:00:00 scattered clouds 30.270 30.270 30.270 32 3.59 m/h 0 %
20:00:00 broken clouds 25.340 25.340 25.340 43 2.69 m/h 0 %
23:00:00 overcast clouds 23.160 23.160 23.160 49 3.16 m/h 0 %
10-May-2021 (Mon)
02:00:00 overcast clouds 23.140 23.140 23.140 47 2.78 m/h 0 %
05:00:00 overcast clouds 22.270 22.270 22.270 48 1.99 m/h 0 %
08:00:00 overcast clouds 28.170 28.170 28.170 33 1.68 m/h 0 %
11:00:00 broken clouds 33.370 33.370 33.370 23 2.57 m/h 0 %
14:00:00 broken clouds 35.690 35.690 35.690 19 3.81 m/h 0 %
17:00:00 broken clouds 35.110 35.110 35.110 19 3 m/h 0 %
20:00:00 broken clouds 27.140 27.140 27.140 38 3.31 m/h 0 %
23:00:00 broken clouds 25.150 25.150 25.150 41 3.65 m/h 0 %
11-May-2021 (Tue)
02:00:00 few clouds 24.580 24.580 24.580 40 3.69 m/h 0 %
05:00:00 light rain 23.480 23.480 23.480 43 3.5 m/h 26 %
08:00:00 light rain 30.140 30.140 30.140 28 2.53 m/h 14 %
11:00:00 light rain 35.140 35.140 35.140 20 3.28 m/h 22 %
14:00:00 clear sky 37.550 37.550 37.550 16 5 m/h 0 %
17:00:00 clear sky 35.360 35.360 35.360 19 0.5 m/h 0 %
20:00:00 scattered clouds 26.080 26.080 26.080 38 5.43 m/h 0 %
23:00:00 light rain 24.050 24.050 24.050 49 4.3 m/h 80 %
12-May-2021 (Wed)
02:00:00 light rain 21.860 21.860 21.860 56 5.16 m/h 31 %
05:00:00 overcast clouds 21.530 21.530 21.530 56 2.73 m/h 0 %
08:00:00 light rain 25.360 25.360 25.360 46 2.8 m/h 163 %
11:00:00 light rain 30.930 30.930 30.930 30 3.3 m/h 16 %
14:00:00 overcast clouds 31.940 31.940 31.940 27 5.68 m/h 0 %
17:00:00 light rain 28.260 28.260 28.260 37 5.13 m/h 44 %
20:00:00 light rain 20.800 20.800 20.800 67 1.67 m/h 276 %
23:00:00 light rain 21.310 21.310 21.310 65 3.91 m/h 102 %
13-May-2021 (Thu)
02:00:00 light rain 19.780 19.780 19.780 71 1.25 m/h 170 %
05:00:00 moderate rain 18.900 18.900 18.900 74 2.45 m/h 368 %
08:00:00 light rain 23.120 23.120 23.120 52 1.89 m/h 196 %
11:00:00 broken clouds 28.210 28.210 28.210 36 2.27 m/h 0 %
14:00:00 few clouds 30.390 30.390 30.390 30 2.64 m/h 0 %

Famous Cities (60)